Time;durP1;ratioP1;P1;durP2;ratioP2;P2;SDS_P1;SDS_P2;PMS_P1;PMS_P2;Temp;Humidity;BMP_temperature;BMP_pressure;BME280_temperature;BME280_humidity;BME280_pressure;Samples;Min_cycle;Max_cycle;Signal;HPM_P1;HPM_P2
2024/01/30 09:01:17;;;;;;;3.00;1.63;;;12.60;99.90;;;;;;2667358;23;20244;-75
2024/01/30 09:03:46;;;;;;;3.17;1.67;;;12.50;99.90;;;;;;4906558;29;20218;-77
2024/01/30 09:06:13;;;;;;;3.50;2.00;;;12.40;99.90;;;;;;4902737;29;20210;-77
2024/01/30 09:08:41;;;;;;;5.43;2.20;;;12.40;99.90;;;;;;4906430;29;20230;-79
2024/01/30 09:11:10;;;;;;;3.77;1.70;;;12.30;99.90;;;;;;4897303;29;20325;-76
2024/01/30 09:13:37;;;;;;;4.43;2.10;;;12.40;99.90;;;;;;4897089;29;20293;-76
2024/01/30 09:16:04;;;;;;;4.27;2.00;;;12.50;99.90;;;;;;4897498;29;20244;-76
2024/01/30 09:18:33;;;;;;;4.87;2.00;;;12.60;99.90;;;;;;4890622;29;20713;-77
2024/01/30 09:21:00;;;;;;;3.13;1.87;;;12.70;99.90;;;;;;4878708;29;20257;-77
2024/01/30 09:23:28;;;;;;;3.70;1.70;;;12.60;99.90;;;;;;4879049;29;20234;-76
2024/01/30 09:25:56;;;;;;;3.80;2.20;;;12.60;99.90;;;;;;4878616;29;20258;-76
2024/01/30 09:28:22;;;;;;;5.17;2.13;;;12.50;99.90;;;;;;4879046;29;20319;-79
2024/01/30 09:30:49;;;;;;;4.90;1.87;;;12.60;99.90;;;;;;4889207;29;20256;-77
2024/01/30 09:33:16;;;;;;;5.10;2.23;;;12.70;99.90;;;;;;4883081;29;20317;-76
2024/01/30 09:35:44;;;;;;;6.27;1.97;;;12.70;99.90;;;;;;4878135;29;20678;-76
2024/01/30 09:38:11;;;;;;;5.27;2.20;;;12.70;99.90;;;;;;4878373;29;20263;-77
2024/01/30 09:40:38;;;;;;;5.47;2.63;;;12.60;99.90;;;;;;4878133;29;20254;-76
2024/01/30 09:43:05;;;;;;;3.93;2.00;;;12.60;99.90;;;;;;4879358;29;20239;-77
2024/01/30 09:45:33;;;;;;;5.93;2.20;;;12.60;99.90;;;;;;4881897;29;20238;-78
2024/01/30 09:48:01;;;;;;;6.17;2.53;;;12.50;99.90;;;;;;4881550;29;20315;-77
2024/01/30 09:50:28;;;;;;;7.10;2.30;;;12.40;99.90;;;;;;4881272;29;20291;-77
2024/01/30 09:52:57;;;;;;;6.43;2.10;;;12.40;99.90;;;;;;4881659;29;20274;-84
2024/01/30 09:55:25;;;;;;;7.17;2.10;;;12.40;99.90;;;;;;4893956;29;20214;-80
2024/01/30 09:57:52;;;;;;;5.10;2.10;;;12.40;99.90;;;;;;4900648;29;20289;-87
2024/01/30 10:00:20;;;;;;;8.37;2.30;;;12.30;99.90;;;;;;4887511;29;20211;-79
2024/01/30 10:02:47;;;;;;;4.77;2.33;;;12.20;99.90;;;;;;4885481;29;20251;-78
2024/01/30 10:05:19;;;;;;;6.47;2.40;;;12.20;99.90;;;;;;4883221;29;20247;-77
2024/01/30 10:07:54;;;;;;;4.83;2.27;;;12.20;99.90;;;;;;4884798;29;20242;-78
2024/01/30 10:10:24;;;;;;;6.50;2.60;;;12.10;99.90;;;;;;4900645;29;20684;-76
2024/01/30 10:12:51;;;;;;;6.10;2.53;;;12.30;99.90;;;;;;4883998;29;20266;-77
2024/01/30 10:15:19;;;;;;;7.70;2.67;;;12.30;99.90;;;;;;4880314;29;20246;-77
2024/01/30 10:17:46;;;;;;;4.40;2.53;;;12.30;99.90;;;;;;4880082;29;20612;-77
2024/01/30 10:20:13;;;;;;;11.10;2.53;;;12.40;99.90;;;;;;4879533;29;20243;-78
2024/01/30 10:22:42;;;;;;;5.53;2.60;;;12.50;99.90;;;;;;4894420;29;20250;-79
2024/01/30 10:25:10;;;;;;;5.93;2.90;;;12.50;99.90;;;;;;4896505;29;20302;-76
2024/01/30 10:27:40;;;;;;;4.83;2.60;;;12.60;99.90;;;;;;4898094;29;20215;-78
2024/01/30 10:30:09;;;;;;;6.27;2.53;;;12.50;99.90;;;;;;4880253;29;20211;-76
2024/01/30 10:32:36;;;;;;;6.40;2.53;;;12.50;99.90;;;;;;4893737;29;20242;-77
2024/01/30 10:35:03;;;;;;;7.37;2.80;;;12.50;99.90;;;;;;4881132;29;20662;-77
2024/01/30 10:37:33;;;;;;;7.23;2.50;;;12.40;99.90;;;;;;4879701;29;20552;-79
2024/01/30 10:40:04;;;;;;;5.13;2.23;;;12.40;99.90;;;;;;4893573;29;20234;-80
2024/01/30 10:42:33;;;;;;;6.10;2.67;;;12.40;99.90;;;;;;4898325;29;20210;-78
2024/01/30 10:45:08;;;;;;;7.93;2.53;;;12.20;99.90;;;;;;4881739;29;20303;-78
2024/01/30 10:47:36;;;;;;;4.73;2.20;;;12.20;99.90;;;;;;4879828;29;20222;-77
2024/01/30 10:50:04;;;;;;;4.67;2.63;;;12.30;99.90;;;;;;4886394;29;20214;-77
2024/01/30 10:52:32;;;;;;;6.40;2.10;;;12.40;99.90;;;;;;4899546;29;20237;-78
2024/01/30 10:55:00;;;;;;;5.57;2.57;;;12.50;99.90;;;;;;4888998;29;20218;-77
2024/01/30 10:57:27;;;;;;;5.03;2.50;;;12.50;99.90;;;;;;4899467;29;20211;-78
2024/01/30 10:59:58;;;;;;;5.37;1.80;;;12.40;99.90;;;;;;4899059;29;20900;-78
2024/01/30 11:02:27;;;;;;;2.87;1.70;;;12.50;99.90;;;;;;4898970;29;20257;-78
2024/01/30 11:04:58;;;;;;;3.27;1.73;;;12.70;99.90;;;;;;4898986;29;20211;-78
2024/01/30 11:07:26;;;;;;;4.13;1.80;;;12.70;99.90;;;;;;4898866;29;20262;-76
2024/01/30 11:09:55;;;;;;;3.47;1.80;;;12.70;99.90;;;;;;4898677;29;20321;-77
2024/01/30 11:12:26;;;;;;;4.70;1.47;;;12.70;99.90;;;;;;4898850;29;20237;-79
2024/01/30 11:15:06;;;;;;;3.20;1.70;;;12.60;99.90;;;;;;4884909;29;20255;-80
2024/01/30 11:17:45;;;;;;;5.73;1.63;;;12.50;99.90;;;;;;4881195;29;20246;-78
2024/01/30 11:20:16;;;;;;;6.10;1.63;;;12.40;99.90;;;;;;4882722;29;20659;-78
2024/01/30 11:22:45;;;;;;;5.60;1.50;;;12.30;99.90;;;;;;4880666;29;20239;-79
2024/01/30 11:25:13;;;;;;;2.33;1.30;;;12.20;99.90;;;;;;4896201;29;20210;-79
2024/01/30 11:27:42;;;;;;;3.73;1.30;;;12.10;99.90;;;;;;4898575;29;20254;-78
2024/01/30 11:30:10;;;;;;;4.23;1.10;;;12.00;99.90;;;;;;4883870;29;20575;-78
2024/01/30 11:32:37;;;;;;;5.40;1.70;;;12.10;99.90;;;;;;4879871;29;20714;-78
2024/01/30 11:35:08;;;;;;;3.60;1.03;;;12.00;99.90;;;;;;4879887;29;20302;-79
2024/01/30 11:37:39;;;;;;;4.67;2.07;;;11.90;99.90;;;;;;4885481;29;20215;-77
2024/01/30 11:40:07;;;;;;;3.00;1.20;;;11.90;99.90;;;;;;4898788;29;20209;-78
2024/01/30 11:42:35;;;;;;;5.17;1.90;;;12.00;99.90;;;;;;4897951;29;20215;-79
2024/01/30 11:45:03;;;;;;;2.50;0.77;;;12.10;99.90;;;;;;4898666;29;20210;-79
2024/01/30 11:47:30;;;;;;;3.37;0.70;;;12.10;99.90;;;;;;4905621;29;20301;-80
2024/01/30 11:49:58;;;;;;;1.57;0.63;;;12.10;99.90;;;;;;4889669;29;20674;-79
2024/01/30 11:52:26;;;;;;;2.70;0.60;;;12.00;99.90;;;;;;4881978;29;20247;-78
2024/01/30 11:54:54;;;;;;;1.63;0.50;;;11.90;99.90;;;;;;4880951;29;20688;-78
2024/01/30 11:57:20;;;;;;;0.40;0.30;;;12.10;99.90;;;;;;4880492;29;20207;-79
2024/01/30 11:59:47;;;;;;;3.13;0.40;;;12.20;99.90;;;;;;4879606;29;20262;-79
2024/01/30 12:02:18;;;;;;;3.60;0.83;;;12.10;99.90;;;;;;4879344;29;20227;-79
2024/01/30 12:04:45;;;;;;;0.60;0.30;;;12.20;99.90;;;;;;4880297;29;20301;-79
2024/01/30 12:07:12;;;;;;;0.90;0.30;;;12.20;99.90;;;;;;4881359;29;20211;-79
2024/01/30 12:09:41;;;;;;;1.80;0.50;;;12.20;99.90;;;;;;4879445;29;20231;-80
2024/01/30 12:12:11;;;;;;;0.80;0.43;;;12.50;99.90;;;;;;4890748;29;20274;-78
2024/01/30 12:14:40;;;;;;;1.80;0.30;;;12.30;99.90;;;;;;4897961;29;20224;-79
2024/01/30 12:17:08;;;;;;;1.73;0.20;;;12.10;99.90;;;;;;4898229;29;20214;-78
2024/01/30 12:19:35;;;;;;;0.97;0.27;;;12.00;99.90;;;;;;4898116;29;20253;-78
2024/01/30 12:22:02;;;;;;;0.33;0.20;;;11.80;99.90;;;;;;4893852;29;20214;-79
2024/01/30 12:24:31;;;;;;;0.47;0.27;;;11.60;99.90;;;;;;4897765;29;20206;-80
2024/01/30 12:27:00;;;;;;;1.00;0.40;;;11.40;99.90;;;;;;4898047;29;20651;-79
2024/01/30 12:29:27;;;;;;;0.80;0.30;;;11.40;99.90;;;;;;4897645;29;20233;-80
2024/01/30 12:31:54;;;;;;;1.57;0.10;;;11.50;99.90;;;;;;4898380;29;20616;-80
2024/01/30 12:34:22;;;;;;;1.60;0.20;;;11.40;99.90;;;;;;4898029;29;20218;-82
2024/01/30 12:36:49;;;;;;;3.07;0.47;;;11.30;99.90;;;;;;4898262;29;20210;-79
2024/01/30 12:39:17;;;;;;;1.33;0.40;;;11.30;99.90;;;;;;4898166;29;20234;-82
2024/01/30 12:41:44;;;;;;;1.53;0.20;;;11.30;99.90;;;;;;4897981;29;20739;-81
2024/01/30 12:44:14;;;;;;;1.40;0.30;;;11.40;99.90;;;;;;4898119;29;20202;-81
2024/01/30 12:46:41;;;;;;;0.83;0.27;;;11.60;99.90;;;;;;4898211;29;20214;-82
2024/01/30 12:49:08;;;;;;;1.43;0.20;;;11.60;99.90;;;;;;4897846;29;20278;-82
2024/01/30 12:51:36;;;;;;;0.57;0.23;;;11.70;99.90;;;;;;4897920;29;20215;-81
2024/01/30 12:54:06;;;;;;;0.93;0.33;;;11.70;99.90;;;;;;4897581;29;20293;-81
2024/01/30 12:56:33;;;;;;;0.80;0.20;;;11.60;99.90;;;;;;4897705;29;20238;-79
2024/01/30 12:59:00;;;;;;;1.60;0.20;;;11.70;99.90;;;;;;4897868;29;20233;-79
2024/01/30 13:01:29;;;;;;;0.97;0.30;;;11.70;99.90;;;;;;4897787;29;20222;-79
2024/01/30 13:03:57;;;;;;;0.87;0.70;;;11.70;99.90;;;;;;4897648;29;20674;-78
2024/01/30 13:06:24;;;;;;;1.27;0.40;;;11.60;99.90;;;;;;4897998;29;20217;-82
2024/01/30 13:08:51;;;;;;;0.80;0.20;;;11.40;99.90;;;;;;4897578;29;20765;-81
2024/01/30 13:11:18;;;;;;;2.23;0.17;;;11.30;99.90;;;;;;4897469;29;20210;-81
2024/01/30 13:13:45;;;;;;;1.43;0.40;;;11.30;99.90;;;;;;4897084;29;20570;-80
2024/01/30 13:16:12;;;;;;;0.50;0.20;;;11.30;99.90;;;;;;4897531;29;20259;-80
2024/01/30 13:18:41;;;;;;;2.17;0.40;;;11.40;99.90;;;;;;4898979;29;20309;-81
2024/01/30 13:21:08;;;;;;;0.87;0.30;;;11.50;99.90;;;;;;4901293;29;20301;-81
2024/01/30 13:23:35;;;;;;;1.47;0.67;;;11.40;99.90;;;;;;4901381;29;20309;-81
2024/01/30 13:26:02;;;;;;;0.50;0.20;;;11.40;99.90;;;;;;4901292;29;20725;-80
2024/01/30 13:28:29;;;;;;;0.30;0.20;;;11.30;99.90;;;;;;4901032;29;20237;-78
2024/01/30 13:30:56;;;;;;;0.50;0.30;;;11.30;99.90;;;;;;4901063;29;20215;-79
2024/01/30 13:33:23;;;;;;;1.50;0.27;;;11.40;99.90;;;;;;4900867;29;20316;-80
2024/01/30 13:35:52;;;;;;;0.93;0.27;;;11.40;99.90;;;;;;4901198;29;20218;-81
2024/01/30 13:38:18;;;;;;;1.43;0.40;;;11.50;99.90;;;;;;4900399;29;20253;-81
2024/01/30 13:40:45;;;;;;;0.67;0.23;;;11.50;99.90;;;;;;4901008;29;20250;-80
2024/01/30 13:43:13;;;;;;;1.40;0.33;;;11.60;99.90;;;;;;4901042;29;20209;-81
2024/01/30 13:45:41;;;;;;;1.63;0.30;;;11.60;99.90;;;;;;4901040;29;20246;-79
2024/01/30 13:48:08;;;;;;;1.53;0.10;;;11.60;99.90;;;;;;4900691;29;20317;-81
2024/01/30 13:50:35;;;;;;;2.20;0.60;;;11.60;99.90;;;;;;4900689;29;20685;-79
2024/01/30 13:53:05;;;;;;;0.40;0.20;;;11.50;99.90;;;;;;4900871;29;20368;-81
2024/01/30 13:55:32;;;;;;;0.60;0.27;;;11.40;99.90;;;;;;4900931;29;20650;-80
2024/01/30 13:57:59;;;;;;;0.40;0.30;;;11.50;99.90;;;;;;4901358;29;20230;-78
2024/01/30 14:00:26;;;;;;;2.77;0.47;;;11.50;99.90;;;;;;4900808;29;20289;-78
2024/01/30 14:02:54;;;;;;;0.63;0.20;;;11.60;99.90;;;;;;4900319;29;20226;-81
2024/01/30 14:05:22;;;;;;;1.37;0.40;;;11.70;99.90;;;;;;4900488;29;20236;-82
2024/01/30 14:07:49;;;;;;;2.20;0.30;;;11.70;99.90;;;;;;4900284;29;20214;-82
2024/01/30 14:10:18;;;;;;;2.63;0.30;;;11.80;99.90;;;;;;4900564;29;20270;-81
2024/01/30 14:12:45;;;;;;;0.57;0.30;;;11.90;99.90;;;;;;4900310;29;20725;-80
2024/01/30 14:15:14;;;;;;;0.63;0.13;;;11.70;99.90;;;;;;4900317;29;20210;-80
2024/01/30 14:17:42;;;;;;;1.23;0.30;;;11.60;99.90;;;;;;4899893;29;20206;-82
2024/01/30 14:20:10;;;;;;;2.30;0.30;;;11.40;99.90;;;;;;4900600;29;20297;-81
2024/01/30 14:22:37;;;;;;;0.50;0.30;;;11.50;99.90;;;;;;4900523;29;20214;-81
2024/01/30 14:25:05;;;;;;;2.27;0.30;;;11.50;99.90;;;;;;4900205;29;20609;-78
2024/01/30 14:27:33;;;;;;;1.03;0.30;;;11.30;99.90;;;;;;4900124;29;20298;-81
2024/01/30 14:30:00;;;;;;;0.67;0.30;;;11.30;99.90;;;;;;4899814;29;21016;-81
2024/01/30 14:32:27;;;;;;;0.50;0.27;;;11.30;99.90;;;;;;4899800;29;20221;-78
2024/01/30 14:34:54;;;;;;;0.70;0.40;;;11.30;99.90;;;;;;4900365;29;20213;-80
2024/01/30 14:37:22;;;;;;;2.63;0.30;;;11.40;99.90;;;;;;4900186;29;20349;-80
2024/01/30 14:39:49;;;;;;;0.70;0.30;;;11.40;99.90;;;;;;4899812;29;20238;-80
2024/01/30 14:42:17;;;;;;;0.80;0.23;;;11.50;99.90;;;;;;4899950;29;20206;-81
2024/01/30 14:44:45;;;;;;;4.63;0.50;;;11.40;99.90;;;;;;4899754;29;20218;-80
2024/01/30 14:47:13;;;;;;;1.67;0.60;;;11.20;99.90;;;;;;4899850;29;20245;-80
2024/01/30 14:49:40;;;;;;;0.40;0.20;;;11.20;99.90;;;;;;4899656;29;20230;-80
2024/01/30 14:52:08;;;;;;;4.83;1.00;;;11.20;99.90;;;;;;4899575;29;20255;-79
2024/01/30 14:54:35;;;;;;;0.87;0.20;;;11.20;99.90;;;;;;4899301;29;20286;-80
2024/01/30 14:57:02;;;;;;;3.00;0.50;;;11.30;99.90;;;;;;4899942;29;20214;-81
2024/01/30 14:59:29;;;;;;;0.80;0.30;;;11.40;99.90;;;;;;4899798;29;20294;-80
2024/01/30 15:01:57;;;;;;;1.83;0.30;;;11.40;99.90;;;;;;4900147;29;20277;-79
2024/01/30 15:04:24;;;;;;;0.90;0.40;;;11.50;99.90;;;;;;4899313;29;20580;-81
2024/01/30 15:06:51;;;;;;;1.13;0.43;;;11.60;99.90;;;;;;4899559;29;20211;-81
2024/01/30 15:09:18;;;;;;;2.00;0.40;;;11.50;99.90;;;;;;4899360;29;20709;-80
2024/01/30 15:11:46;;;;;;;1.13;0.50;;;11.40;99.90;;;;;;4899208;29;20210;-79
2024/01/30 15:14:13;;;;;;;2.73;0.47;;;11.30;99.90;;;;;;4899117;29;20302;-81
2024/01/30 15:16:40;;;;;;;1.17;0.40;;;11.20;99.90;;;;;;4899180;29;20210;-80
2024/01/30 15:19:09;;;;;;;1.23;0.40;;;11.20;99.90;;;;;;4898992;29;20230;-80
2024/01/30 15:21:36;;;;;;;0.50;0.30;;;11.20;99.90;;;;;;4899133;29;20217;-80
2024/01/30 15:24:03;;;;;;;3.80;0.47;;;11.10;99.90;;;;;;4898857;29;20238;-81
2024/01/30 15:26:30;;;;;;;0.53;0.30;;;11.00;99.90;;;;;;4899192;29;20214;-81
2024/01/30 15:28:57;;;;;;;0.63;0.40;;;11.00;99.90;;;;;;4899180;29;20230;-80
2024/01/30 15:31:24;;;;;;;0.37;0.30;;;10.80;99.90;;;;;;4899168;29;20725;-81
2024/01/30 15:33:51;;;;;;;0.87;0.40;;;10.80;99.90;;;;;;4898824;29;20246;-80
2024/01/30 15:36:20;;;;;;;0.60;0.23;;;10.80;99.90;;;;;;4899480;29;20210;-80
2024/01/30 15:38:47;;;;;;;0.67;0.37;;;10.70;99.90;;;;;;4899918;29;20258;-80
2024/01/30 15:41:14;;;;;;;0.63;0.23;;;10.60;99.90;;;;;;4899386;29;20627;-78
2024/01/30 15:43:41;;;;;;;5.53;0.50;;;10.50;99.90;;;;;;4910591;29;20214;-77
2024/01/30 15:46:08;;;;;;;0.63;0.30;;;10.50;99.90;;;;;;4910610;29;20210;-78
2024/01/30 15:48:35;;;;;;;1.30;0.30;;;10.60;99.90;;;;;;4904178;29;20586;-80
2024/01/30 15:51:02;;;;;;;1.63;0.23;;;10.50;99.90;;;;;;4898804;29;20241;-82
2024/01/30 15:53:30;;;;;;;0.60;0.20;;;10.60;99.90;;;;;;4898469;29;20234;-80
2024/01/30 15:55:58;;;;;;;1.97;0.60;;;10.60;99.90;;;;;;4898889;29;20206;-80
2024/01/30 15:58:24;;;;;;;3.03;0.30;;;10.40;99.90;;;;;;4898575;29;20230;-79
2024/01/30 16:00:52;;;;;;;1.43;0.30;;;10.40;99.90;;;;;;4898543;29;20277;-81
2024/01/30 16:03:19;;;;;;;1.37;0.27;;;10.50;99.90;;;;;;4898232;29;20250;-81
2024/01/30 16:05:45;;;;;;;0.70;0.20;;;10.40;99.90;;;;;;4898569;29;20622;-81
2024/01/30 16:08:12;;;;;;;1.67;0.30;;;10.40;99.90;;;;;;4898050;29;20705;-81
2024/01/30 16:10:41;;;;;;;1.00;0.30;;;10.40;99.90;;;;;;4898359;29;20289;-81
2024/01/30 16:13:08;;;;;;;5.87;0.70;;;10.40;99.90;;;;;;4899401;29;20222;-81
2024/01/30 16:15:35;;;;;;;1.40;0.30;;;10.40;99.90;;;;;;4898786;29;20207;-81
2024/01/30 16:18:02;;;;;;;2.20;0.30;;;10.40;99.90;;;;;;4898354;29;20227;-80
2024/01/30 16:20:29;;;;;;;1.07;0.33;;;10.40;99.90;;;;;;4898282;29;20294;-81
2024/01/30 16:22:56;;;;;;;2.43;0.30;;;10.30;99.90;;;;;;4898446;29;20282;-83
2024/01/30 16:25:23;;;;;;;2.43;0.40;;;10.20;99.90;;;;;;4898399;29;20289;-82
2024/01/30 16:27:51;;;;;;;1.00;0.50;;;10.20;99.90;;;;;;4898114;29;20237;-82
2024/01/30 16:30:19;;;;;;;0.97;0.30;;;10.20;99.90;;;;;;4897850;29;20708;-82
2024/01/30 16:32:46;;;;;;;2.67;0.50;;;10.30;99.90;;;;;;4897960;29;20206;-81
2024/01/30 16:35:13;;;;;;;1.10;0.37;;;10.30;99.90;;;;;;4897694;29;20713;-80
2024/01/30 16:37:40;;;;;;;2.07;0.60;;;10.30;99.90;;;;;;4897944;29;20216;-80
2024/01/30 16:40:09;;;;;;;2.10;0.40;;;10.30;99.90;;;;;;4893909;29;20618;-78
2024/01/30 16:42:35;;;;;;;0.73;0.40;;;10.30;99.90;;;;;;4897700;29;20301;-81
2024/01/30 16:45:05;;;;;;;2.20;0.63;;;10.10;99.90;;;;;;4886914;29;20343;-80
2024/01/30 16:47:32;;;;;;;2.00;0.43;;;10.10;99.90;;;;;;4897444;29;20210;-78
2024/01/30 16:49:59;;;;;;;1.97;0.67;;;10.10;99.90;;;;;;4906640;29;20265;-78
2024/01/30 16:52:26;;;;;;;1.00;0.60;;;10.10;99.90;;;;;;4915591;29;20297;-81
2024/01/30 16:54:54;;;;;;;1.80;0.67;;;10.10;99.90;;;;;;4906639;29;20253;-79
2024/01/30 16:57:21;;;;;;;1.93;0.60;;;10.20;99.90;;;;;;4895116;29;20262;-80
2024/01/30 16:59:48;;;;;;;1.43;0.70;;;10.20;99.90;;;;;;4886885;29;20230;-82
2024/01/30 17:02:16;;;;;;;5.20;0.73;;;10.10;99.90;;;;;;4897295;29;20214;-77
2024/01/30 17:04:43;;;;;;;0.93;0.50;;;10.30;99.90;;;;;;4897179;29;20206;-79
2024/01/30 17:07:10;;;;;;;1.20;0.70;;;10.30;99.90;;;;;;4897166;29;20753;-79
2024/01/30 17:09:37;;;;;;;0.70;0.50;;;10.10;99.90;;;;;;4896986;29;20222;-80
2024/01/30 17:12:05;;;;;;;2.90;0.70;;;10.00;99.90;;;;;;4897180;29;20210;-77
2024/01/30 17:14:35;;;;;;;1.73;0.90;;;9.90;99.90;;;;;;4892332;29;20234;-87
2024/01/30 17:17:03;;;;;;;4.30;0.70;;;9.80;99.90;;;;;;4879155;29;20211;-80
2024/01/30 17:19:31;;;;;;;6.23;0.73;;;9.60;99.90;;;;;;4879099;29;20240;-79
2024/01/30 17:21:58;;;;;;;1.00;0.57;;;9.40;99.90;;;;;;4878725;29;20560;-77
2024/01/30 17:24:25;;;;;;;3.50;0.63;;;9.40;99.90;;;;;;4878433;29;20203;-77
2024/01/30 17:26:52;;;;;;;1.70;0.67;;;9.50;99.90;;;;;;4878693;29;20242;-76
2024/01/30 17:29:19;;;;;;;3.83;1.40;;;9.60;99.90;;;;;;4879804;29;20234;-77
2024/01/30 17:31:46;;;;;;;1.37;0.70;;;9.50;99.90;;;;;;4878213;29;20583;-77
2024/01/30 17:34:13;;;;;;;4.53;1.00;;;9.40;99.90;;;;;;4882576;29;20229;-76
2024/01/30 17:36:41;;;;;;;1.63;0.80;;;9.40;99.90;;;;;;4901612;29;20209;-77
2024/01/30 17:39:08;;;;;;;1.97;1.10;;;9.50;99.90;;;;;;4911347;29;20322;-77
2024/01/30 17:41:36;;;;;;;1.30;0.80;;;9.40;99.90;;;;;;4877802;29;20226;-79
2024/01/30 17:44:03;;;;;;;1.33;0.93;;;9.40;99.90;;;;;;4878136;29;20278;-79
2024/01/30 17:46:30;;;;;;;3.60;0.80;;;9.40;99.90;;;;;;4897508;29;20266;-79
2024/01/30 17:48:57;;;;;;;5.57;1.60;;;9.40;99.90;;;;;;4897473;29;20241;-78
2024/01/30 17:51:24;;;;;;;4.57;1.00;;;9.50;99.90;;;;;;4890933;29;20262;-78
2024/01/30 17:53:52;;;;;;;2.13;1.00;;;9.50;99.90;;;;;;4896717;29;20317;-79
2024/01/30 17:56:20;;;;;;;3.20;1.13;;;9.60;99.90;;;;;;4896772;29;20214;-79
2024/01/30 17:58:47;;;;;;;1.67;1.03;;;9.60;99.90;;;;;;4897469;29;20235;-78
2024/01/30 18:01:13;;;;;;;3.17;1.07;;;9.60;99.90;;;;;;4883474;29;20207;-79
2024/01/30 18:03:41;;;;;;;5.30;1.10;;;9.60;99.90;;;;;;4884805;29;20247;-78
2024/01/30 18:06:08;;;;;;;2.90;1.27;;;9.60;99.90;;;;;;4888951;29;20981;-77
2024/01/30 18:08:35;;;;;;;2.17;1.00;;;9.60;99.90;;;;;;4893914;29;20257;-78
2024/01/30 18:11:04;;;;;;;3.23;1.77;;;9.60;99.90;;;;;;4898574;29;20286;-77
2024/01/30 18:13:31;;;;;;;2.60;0.90;;;9.50;99.90;;;;;;4908746;29;20214;-77
2024/01/30 18:15:58;;;;;;;2.23;0.80;;;9.50;99.90;;;;;;4897997;29;20222;-77
2024/01/30 18:18:26;;;;;;;2.33;1.17;;;9.60;99.90;;;;;;4909699;29;20566;-77
2024/01/30 18:20:53;;;;;;;2.80;1.23;;;9.60;99.90;;;;;;4905256;29;20213;-78
2024/01/30 18:23:20;;;;;;;3.73;0.83;;;9.50;99.90;;;;;;4907388;29;20244;-77
2024/01/30 18:25:47;;;;;;;2.07;0.90;;;9.50;99.90;;;;;;4898128;29;20254;-77
2024/01/30 18:28:16;;;;;;;2.33;0.90;;;9.50;99.90;;;;;;4907334;29;20223;-77
2024/01/30 18:30:42;;;;;;;3.57;0.80;;;9.50;99.90;;;;;;4897616;29;20249;-77
2024/01/30 18:33:09;;;;;;;4.67;1.10;;;9.60;99.90;;;;;;4899675;29;20290;-77
2024/01/30 18:35:36;;;;;;;2.67;1.50;;;9.60;99.90;;;;;;4889250;29;20230;-77
2024/01/30 18:38:04;;;;;;;2.63;1.13;;;9.70;99.90;;;;;;4897313;29;20363;-76
2024/01/30 18:40:31;;;;;;;1.40;0.80;;;9.60;99.90;;;;;;4908024;29;20621;-76
2024/01/30 18:43:00;;;;;;;1.27;0.90;;;9.50;99.90;;;;;;4899990;29;20257;-77
2024/01/30 18:45:28;;;;;;;2.00;1.17;;;9.50;99.90;;;;;;4899024;29;20217;-76
2024/01/30 18:47:55;;;;;;;1.60;1.00;;;9.40;99.90;;;;;;4913801;29;20264;-77
2024/01/30 18:50:22;;;;;;;2.87;1.30;;;9.40;99.90;;;;;;4902443;29;20213;-76
2024/01/30 18:52:52;;;;;;;3.30;1.10;;;9.50;99.90;;;;;;4915581;29;20202;-77
2024/01/30 18:55:20;;;;;;;4.00;1.17;;;9.50;99.90;;;;;;4900900;29;20337;-76
2024/01/30 18:57:47;;;;;;;3.90;1.13;;;9.50;99.90;;;;;;4917026;29;20241;-76
2024/01/30 19:00:15;;;;;;;1.97;1.17;;;9.50;99.90;;;;;;4898419;29;20217;-76
2024/01/30 19:02:43;;;;;;;2.53;1.03;;;9.60;99.90;;;;;;4898078;29;20270;-76
2024/01/30 19:05:10;;;;;;;2.03;0.83;;;9.60;99.90;;;;;;4880669;29;20243;-77
2024/01/30 19:07:37;;;;;;;1.83;0.97;;;9.50;99.90;;;;;;4880537;29;20219;-76
2024/01/30 19:10:05;;;;;;;5.23;1.67;;;9.40;99.90;;;;;;4890516;29;20704;-76
2024/01/30 19:12:33;;;;;;;2.13;1.10;;;9.40;99.90;;;;;;4899421;29;20258;-76
2024/01/30 19:15:00;;;;;;;4.73;1.13;;;9.30;99.90;;;;;;4882357;29;20969;-76
2024/01/30 19:17:27;;;;;;;1.97;1.17;;;9.30;99.90;;;;;;4879778;29;20208;-76
2024/01/30 19:19:56;;;;;;;3.67;1.07;;;9.30;99.90;;;;;;4889493;29;20225;-77
2024/01/30 19:22:23;;;;;;;1.37;1.00;;;9.30;99.90;;;;;;4899287;29;20269;-76
2024/01/30 19:24:49;;;;;;;2.97;0.97;;;9.40;99.90;;;;;;4884370;29;20254;-77
2024/01/30 19:27:16;;;;;;;2.53;1.27;;;9.50;99.90;;;;;;4880026;29;20639;-77
2024/01/30 19:29:43;;;;;;;2.50;1.33;;;9.50;99.90;;;;;;4879929;29;20640;-77
2024/01/30 19:32:10;;;;;;;5.10;1.20;;;9.50;99.90;;;;;;4879817;29;20671;-76
2024/01/30 19:34:37;;;;;;;5.20;1.40;;;9.60;99.90;;;;;;4880054;29;20326;-76
2024/01/30 19:37:05;;;;;;;5.37;1.53;;;9.70;99.90;;;;;;4880029;29;20214;-76
2024/01/30 19:39:32;;;;;;;1.90;1.10;;;9.80;99.90;;;;;;4879733;29;20303;-76
2024/01/30 19:41:59;;;;;;;2.47;1.30;;;9.90;99.90;;;;;;4880857;29;20268;-76
2024/01/30 19:44:26;;;;;;;4.47;1.40;;;9.80;99.90;;;;;;4882082;29;20748;-77
2024/01/30 19:46:53;;;;;;;4.60;1.47;;;9.80;99.90;;;;;;4881894;29;20242;-77
2024/01/30 19:49:21;;;;;;;2.57;1.07;;;9.90;99.90;;;;;;4880543;29;20291;-77
2024/01/30 19:51:48;;;;;;;7.30;1.43;;;9.90;99.90;;;;;;4880675;29;20245;-76
2024/01/30 19:54:17;;;;;;;2.23;1.50;;;9.80;99.90;;;;;;4879541;29;20670;-76
2024/01/30 19:56:44;;;;;;;4.20;1.50;;;9.80;99.90;;;;;;4879591;29;20207;-76
2024/01/30 19:59:11;;;;;;;2.73;1.60;;;9.60;99.90;;;;;;4879127;29;20266;-76
2024/01/30 20:01:38;;;;;;;2.83;1.43;;;9.80;99.90;;;;;;4879508;29;20298;-76
2024/01/30 20:04:05;;;;;;;1.60;1.00;;;9.80;99.90;;;;;;4879489;29;20295;-77
2024/01/30 20:06:32;;;;;;;3.53;1.30;;;9.80;99.90;;;;;;4879620;29;20222;-76
2024/01/30 20:08:59;;;;;;;2.33;1.30;;;9.60;99.90;;;;;;4879391;29;20227;-76
2024/01/30 20:11:28;;;;;;;2.37;1.30;;;9.40;99.90;;;;;;4879492;29;20215;-77
2024/01/30 20:13:55;;;;;;;2.73;1.40;;;9.50;99.90;;;;;;4879250;29;20302;-77
2024/01/30 20:16:21;;;;;;;3.40;1.43;;;9.50;99.90;;;;;;4879507;29;20317;-77
2024/01/30 20:18:48;;;;;;;2.00;1.20;;;9.40;99.90;;;;;;4879197;29;20262;-77
2024/01/30 20:21:14;;;;;;;3.47;1.40;;;9.50;99.90;;;;;;4879266;29;20694;-77
2024/01/30 20:23:41;;;;;;;3.60;1.63;;;9.60;99.90;;;;;;4879327;29;20263;-77
2024/01/30 20:26:08;;;;;;;5.33;2.20;;;9.50;99.90;;;;;;4879401;29;20222;-76
2024/01/30 20:28:37;;;;;;;2.77;1.73;;;9.50;99.90;;;;;;4879008;29;20270;-76
2024/01/30 20:31:04;;;;;;;2.43;1.30;;;9.20;99.90;;;;;;4879428;29;20218;-76
2024/01/30 20:33:33;;;;;;;2.63;1.20;;;9.20;99.90;;;;;;4879121;29;20211;-76
2024/01/30 20:36:00;;;;;;;2.77;1.47;;;9.30;99.90;;;;;;4879144;29;20239;-76
2024/01/30 20:38:27;;;;;;;5.13;1.70;;;9.20;99.90;;;;;;4879373;29;20254;-76
2024/01/30 20:40:54;;;;;;;3.40;1.73;;;9.20;99.90;;;;;;4879000;29;20215;-76
2024/01/30 20:43:21;;;;;;;3.97;1.53;;;9.20;99.90;;;;;;4879318;29;20219;-76
2024/01/30 20:45:50;;;;;;;2.77;1.50;;;9.20;99.90;;;;;;4879107;29;20623;-76
2024/01/30 20:48:17;;;;;;;4.27;1.77;;;9.20;99.90;;;;;;4878980;29;20588;-77
2024/01/30 20:50:44;;;;;;;5.73;1.80;;;9.30;99.90;;;;;;4878861;29;20243;-76
2024/01/30 20:53:12;;;;;;;2.10;1.23;;;9.30;99.90;;;;;;4878903;29;20245;-76
2024/01/30 20:55:38;;;;;;;2.73;1.17;;;9.50;99.90;;;;;;4878930;29;20249;-76
2024/01/30 20:58:05;;;;;;;3.43;1.33;;;9.40;99.90;;;;;;4879089;29;20393;-76
2024/01/30 21:00:32;;;;;;;5.07;1.80;;;9.40;99.90;;;;;;4878958;29;20211;-77
2024/01/30 21:03:01;;;;;;;3.30;1.70;;;9.30;99.90;;;;;;4878806;29;20219;-76
2024/01/30 21:05:28;;;;;;;3.87;1.70;;;9.30;99.90;;;;;;4879560;29;20214;-76
2024/01/30 21:07:55;;;;;;;7.13;2.20;;;9.30;99.90;;;;;;4878521;29;20290;-76
2024/01/30 21:10:21;;;;;;;3.73;1.53;;;9.30;99.90;;;;;;4878979;29;20247;-76
2024/01/30 21:12:48;;;;;;;3.57;1.87;;;9.30;99.90;;;;;;4879295;29;20238;-76
2024/01/30 21:15:15;;;;;;;4.83;1.80;;;9.30;99.90;;;;;;4879030;29;20278;-76
2024/01/30 21:17:42;;;;;;;3.23;1.60;;;9.30;99.90;;;;;;4879632;29;20211;-77
2024/01/30 21:20:12;;;;;;;4.20;1.70;;;9.20;99.90;;;;;;4880034;29;20208;-77
2024/01/30 21:22:40;;;;;;;2.37;1.67;;;9.00;99.90;;;;;;4879056;29;20211;-76
2024/01/30 21:25:07;;;;;;;3.03;1.70;;;9.00;99.90;;;;;;4879033;29;20211;-77
2024/01/30 21:27:37;;;;;;;4.30;1.83;;;8.90;99.90;;;;;;4878723;29;20211;-76
2024/01/30 21:30:05;;;;;;;2.73;1.67;;;9.00;99.90;;;;;;4878680;29;20227;-76
2024/01/30 21:32:32;;;;;;;2.93;1.80;;;9.10;99.90;;;;;;4878438;29;20211;-76
2024/01/30 21:34:59;;;;;;;3.33;1.77;;;9.20;99.90;;;;;;4878583;29;20239;-74
2024/01/30 21:37:28;;;;;;;3.73;1.90;;;9.30;99.90;;;;;;4893308;29;20640;-77
2024/01/30 21:39:55;;;;;;;3.77;2.20;;;9.30;99.90;;;;;;4902258;29;20229;-77
